sensor_id;sensor_type;location;lat;lon;timestamp;P1;durP1;ratioP1;P2;durP2;ratioP2
63320;SDS011;49449;48.800;9.534;2023-05-10T00:01:34;1.10;;;1.10;;
63320;SDS011;49449;48.800;9.534;2023-05-10T00:04:01;0.80;;;0.80;;
63320;SDS011;49449;48.800;9.534;2023-05-10T00:06:30;1.02;;;0.90;;
63320;SDS011;49449;48.800;9.534;2023-05-10T00:08:57;1.17;;;1.08;;
63320;SDS011;49449;48.800;9.534;2023-05-10T00:11:26;0.98;;;0.98;;
63320;SDS011;49449;48.800;9.534;2023-05-10T00:13:56;1.00;;;1.00;;
63320;SDS011;49449;48.800;9.534;2023-05-10T00:16:23;1.60;;;1.48;;
63320;SDS011;49449;48.800;9.534;2023-05-10T00:18:51;1.05;;;1.05;;
63320;SDS011;49449;48.800;9.534;2023-05-10T00:21:20;1.13;;;0.95;;
63320;SDS011;49449;48.800;9.534;2023-05-10T00:23:48;1.17;;;1.08;;
63320;SDS011;49449;48.800;9.534;2023-05-10T00:26:15;1.20;;;1.10;;
63320;SDS011;49449;48.800;9.534;2023-05-10T00:28:44;1.30;;;1.23;;
63320;SDS011;49449;48.800;9.534;2023-05-10T00:31:13;1.00;;;1.00;;
63320;SDS011;49449;48.800;9.534;2023-05-10T00:33:41;1.75;;;1.17;;
63320;SDS011;49449;48.800;9.534;2023-05-10T00:36:08;1.58;;;1.20;;
63320;SDS011;49449;48.800;9.534;2023-05-10T00:38:36;1.20;;;1.05;;
63320;SDS011;49449;48.800;9.534;2023-05-10T00:41:04;1.10;;;1.00;;
63320;SDS011;49449;48.800;9.534;2023-05-10T00:43:32;0.70;;;0.70;;
63320;SDS011;49449;48.800;9.534;2023-05-10T00:46:00;0.70;;;0.70;;
63320;SDS011;49449;48.800;9.534;2023-05-10T00:48:29;1.35;;;0.80;;
63320;SDS011;49449;48.800;9.534;2023-05-10T00:50:57;0.80;;;0.80;;
63320;SDS011;49449;48.800;9.534;2023-05-10T00:53:25;0.70;;;0.70;;
63320;SDS011;49449;48.800;9.534;2023-05-10T00:55:54;1.08;;;0.70;;
63320;SDS011;49449;48.800;9.534;2023-05-10T00:58:22;1.02;;;0.60;;
63320;SDS011;49449;48.800;9.534;2023-05-10T01:00:54;0.70;;;0.70;;
63320;SDS011;49449;48.800;9.534;2023-05-10T01:03:22;0.60;;;0.60;;
63320;SDS011;49449;48.800;9.534;2023-05-10T01:05:51;1.02;;;0.60;;
63320;SDS011;49449;48.800;9.534;2023-05-10T01:08:20;0.52;;;0.52;;
63320;SDS011;49449;48.800;9.534;2023-05-10T01:10:48;0.50;;;0.50;;
63320;SDS011;49449;48.800;9.534;2023-05-10T01:13:17;0.75;;;0.60;;
63320;SDS011;49449;48.800;9.534;2023-05-10T01:15:54;0.80;;;0.47;;
63320;SDS011;49449;48.800;9.534;2023-05-10T01:18:22;0.40;;;0.40;;
63320;SDS011;49449;48.800;9.534;2023-05-10T01:20:54;0.40;;;0.40;;
63320;SDS011;49449;48.800;9.534;2023-05-10T01:23:42;0.43;;;0.43;;
63320;SDS011;49449;48.800;9.534;2023-05-10T01:29:44;1.05;;;0.95;;
63320;SDS011;49449;48.800;9.534;2023-05-10T01:32:41;0.60;;;0.60;;
63320;SDS011;49449;48.800;9.534;2023-05-10T01:35:17;1.95;;;0.40;;
63320;SDS011;49449;48.800;9.534;2023-05-10T01:37:52;0.73;;;0.40;;
63320;SDS011;49449;48.800;9.534;2023-05-10T01:40:35;1.27;;;1.15;;
63320;SDS011;49449;48.800;9.534;2023-05-10T01:43:08;0.60;;;0.60;;
63320;SDS011;49449;48.800;9.534;2023-05-10T01:45:45;0.40;;;0.40;;
63320;SDS011;49449;48.800;9.534;2023-05-10T01:48:21;0.40;;;0.40;;
63320;SDS011;49449;48.800;9.534;2023-05-10T01:50:54;0.52;;;0.52;;
63320;SDS011;49449;48.800;9.534;2023-05-10T01:53:23;0.35;;;0.30;;
63320;SDS011;49449;48.800;9.534;2023-05-10T01:55:52;0.40;;;0.40;;
63320;SDS011;49449;48.800;9.534;2023-05-10T01:58:23;0.47;;;0.47;;
63320;SDS011;49449;48.800;9.534;2023-05-10T02:00:54;0.80;;;0.80;;
63320;SDS011;49449;48.800;9.534;2023-05-10T02:03:27;2.35;;;0.40;;
63320;SDS011;49449;48.800;9.534;2023-05-10T02:05:55;0.77;;;0.77;;
63320;SDS011;49449;48.800;9.534;2023-05-10T02:08:24;0.95;;;0.40;;
63320;SDS011;49449;48.800;9.534;2023-05-10T02:10:54;1.20;;;0.40;;
63320;SDS011;49449;48.800;9.534;2023-05-10T02:13:23;0.30;;;0.30;;
63320;SDS011;49449;48.800;9.534;2023-05-10T02:15:53;1.10;;;0.38;;
63320;SDS011;49449;48.800;9.534;2023-05-10T02:20:55;0.55;;;0.55;;
63320;SDS011;49449;48.800;9.534;2023-05-10T02:23:23;0.50;;;0.50;;
63320;SDS011;49449;48.800;9.534;2023-05-10T02:25:53;0.55;;;0.55;;
63320;SDS011;49449;48.800;9.534;2023-05-10T02:28:22;1.00;;;0.50;;
63320;SDS011;49449;48.800;9.534;2023-05-10T02:30:52;0.60;;;0.60;;
63320;SDS011;49449;48.800;9.534;2023-05-10T02:33:21;0.68;;;0.47;;
63320;SDS011;49449;48.800;9.534;2023-05-10T02:35:50;0.40;;;0.40;;
63320;SDS011;49449;48.800;9.534;2023-05-10T02:38:20;0.52;;;0.52;;
63320;SDS011;49449;48.800;9.534;2023-05-10T02:40:51;0.65;;;0.43;;
63320;SDS011;49449;48.800;9.534;2023-05-10T02:43:22;1.15;;;0.50;;
63320;SDS011;49449;48.800;9.534;2023-05-10T02:45:51;0.63;;;0.45;;
63320;SDS011;49449;48.800;9.534;2023-05-10T02:48:19;0.90;;;0.75;;
63320;SDS011;49449;48.800;9.534;2023-05-10T02:50:47;0.50;;;0.50;;
63320;SDS011;49449;48.800;9.534;2023-05-10T02:53:21;0.63;;;0.60;;
63320;SDS011;49449;48.800;9.534;2023-05-10T02:55:51;0.45;;;0.45;;
63320;SDS011;49449;48.800;9.534;2023-05-10T02:58:24;0.82;;;0.57;;
63320;SDS011;49449;48.800;9.534;2023-05-10T03:00:52;1.00;;;0.43;;
63320;SDS011;49449;48.800;9.534;2023-05-10T03:03:20;0.50;;;0.50;;
63320;SDS011;49449;48.800;9.534;2023-05-10T03:05:48;0.65;;;0.63;;
63320;SDS011;49449;48.800;9.534;2023-05-10T03:08:16;0.70;;;0.70;;
63320;SDS011;49449;48.800;9.534;2023-05-10T03:10:47;0.63;;;0.40;;
63320;SDS011;49449;48.800;9.534;2023-05-10T03:13:25;0.52;;;0.52;;
63320;SDS011;49449;48.800;9.534;2023-05-10T03:16:04;0.80;;;0.80;;
63320;SDS011;49449;48.800;9.534;2023-05-10T03:18:40;0.40;;;0.40;;
63320;SDS011;49449;48.800;9.534;2023-05-10T03:21:11;0.65;;;0.60;;
63320;SDS011;49449;48.800;9.534;2023-05-10T03:23:43;1.10;;;0.73;;
63320;SDS011;49449;48.800;9.534;2023-05-10T03:26:15;1.23;;;1.13;;
63320;SDS011;49449;48.800;9.534;2023-05-10T03:28:47;0.85;;;0.70;;
63320;SDS011;49449;48.800;9.534;2023-05-10T03:31:16;0.82;;;0.57;;
63320;SDS011;49449;48.800;9.534;2023-05-10T03:33:47;0.60;;;0.60;;
63320;SDS011;49449;48.800;9.534;2023-05-10T03:38:44;1.50;;;0.60;;
63320;SDS011;49449;48.800;9.534;2023-05-10T03:41:12;0.65;;;0.50;;
63320;SDS011;49449;48.800;9.534;2023-05-10T03:43:41;0.60;;;0.60;;
63320;SDS011;49449;48.800;9.534;2023-05-10T03:46:09;0.40;;;0.40;;
63320;SDS011;49449;48.800;9.534;2023-05-10T03:48:37;0.68;;;0.68;;
63320;SDS011;49449;48.800;9.534;2023-05-10T03:51:05;0.60;;;0.60;;
63320;SDS011;49449;48.800;9.534;2023-05-10T03:53:32;0.75;;;0.75;;
63320;SDS011;49449;48.800;9.534;2023-05-10T03:56:00;0.80;;;0.80;;
63320;SDS011;49449;48.800;9.534;2023-05-10T03:58:28;0.65;;;0.65;;
63320;SDS011;49449;48.800;9.534;2023-05-10T04:00:57;0.68;;;0.68;;
63320;SDS011;49449;48.800;9.534;2023-05-10T04:03:25;0.70;;;0.70;;
63320;SDS011;49449;48.800;9.534;2023-05-10T04:06:01;1.55;;;0.68;;
63320;SDS011;49449;48.800;9.534;2023-05-10T04:08:29;0.70;;;0.70;;
63320;SDS011;49449;48.800;9.534;2023-05-10T04:11:04;1.27;;;0.50;;
63320;SDS011;49449;48.800;9.534;2023-05-10T04:13:33;0.88;;;0.88;;
63320;SDS011;49449;48.800;9.534;2023-05-10T04:16:03;0.60;;;0.60;;
63320;SDS011;49449;48.800;9.534;2023-05-10T04:18:32;0.68;;;0.68;;
63320;SDS011;49449;48.800;9.534;2023-05-10T04:21:00;0.75;;;0.75;;
63320;SDS011;49449;48.800;9.534;2023-05-10T04:23:30;3.25;;;0.73;;
63320;SDS011;49449;48.800;9.534;2023-05-10T04:26:01;1.25;;;0.80;;
63320;SDS011;49449;48.800;9.534;2023-05-10T04:28:29;1.15;;;0.80;;
63320;SDS011;49449;48.800;9.534;2023-05-10T04:31:00;0.73;;;0.73;;
63320;SDS011;49449;48.800;9.534;2023-05-10T04:33:30;1.55;;;1.10;;
63320;SDS011;49449;48.800;9.534;2023-05-10T04:35:58;2.92;;;0.82;;
63320;SDS011;49449;48.800;9.534;2023-05-10T04:38:28;2.55;;;1.10;;
63320;SDS011;49449;48.800;9.534;2023-05-10T04:41:03;1.02;;;1.00;;
63320;SDS011;49449;48.800;9.534;2023-05-10T04:43:32;1.40;;;1.15;;
63320;SDS011;49449;48.800;9.534;2023-05-10T04:46:00;1.02;;;0.90;;
63320;SDS011;49449;48.800;9.534;2023-05-10T04:48:30;1.67;;;1.02;;
63320;SDS011;49449;48.800;9.534;2023-05-10T04:50:58;1.45;;;1.38;;
63320;SDS011;49449;48.800;9.534;2023-05-10T04:53:27;0.80;;;0.80;;
63320;SDS011;49449;48.800;9.534;2023-05-10T04:55:54;0.90;;;0.90;;
63320;SDS011;49449;48.800;9.534;2023-05-10T04:58:22;1.30;;;0.70;;
63320;SDS011;49449;48.800;9.534;2023-05-10T05:00:50;2.05;;;0.93;;
63320;SDS011;49449;48.800;9.534;2023-05-10T05:03:18;0.75;;;0.75;;
63320;SDS011;49449;48.800;9.534;2023-05-10T05:05:47;0.80;;;0.80;;
63320;SDS011;49449;48.800;9.534;2023-05-10T05:08:15;1.20;;;1.20;;
63320;SDS011;49449;48.800;9.534;2023-05-10T05:10:43;0.75;;;0.75;;
63320;SDS011;49449;48.800;9.534;2023-05-10T05:13:12;1.25;;;0.82;;
63320;SDS011;49449;48.800;9.534;2023-05-10T05:15:40;0.88;;;0.88;;
63320;SDS011;49449;48.800;9.534;2023-05-10T05:18:07;0.95;;;0.95;;
63320;SDS011;49449;48.800;9.534;2023-05-10T05:20:35;1.70;;;1.40;;
63320;SDS011;49449;48.800;9.534;2023-05-10T05:23:05;1.50;;;0.90;;
63320;SDS011;49449;48.800;9.534;2023-05-10T05:25:33;1.20;;;0.90;;
63320;SDS011;49449;48.800;9.534;2023-05-10T05:28:01;1.50;;;1.25;;
63320;SDS011;49449;48.800;9.534;2023-05-10T05:30:29;0.90;;;0.90;;
63320;SDS011;49449;48.800;9.534;2023-05-10T05:32:57;0.77;;;0.70;;
63320;SDS011;49449;48.800;9.534;2023-05-10T05:35:25;1.27;;;0.82;;
63320;SDS011;49449;48.800;9.534;2023-05-10T05:37:53;1.33;;;1.08;;
63320;SDS011;49449;48.800;9.534;2023-05-10T05:40:23;1.23;;;0.90;;
63320;SDS011;49449;48.800;9.534;2023-05-10T05:42:51;0.68;;;0.68;;
63320;SDS011;49449;48.800;9.534;2023-05-10T05:45:19;1.90;;;1.00;;
63320;SDS011;49449;48.800;9.534;2023-05-10T05:47:50;1.00;;;0.90;;
63320;SDS011;49449;48.800;9.534;2023-05-10T05:50:18;0.77;;;0.75;;
63320;SDS011;49449;48.800;9.534;2023-05-10T05:52:46;0.73;;;0.73;;
63320;SDS011;49449;48.800;9.534;2023-05-10T05:55:14;0.82;;;0.82;;
63320;SDS011;49449;48.800;9.534;2023-05-10T05:57:44;0.70;;;0.70;;
63320;SDS011;49449;48.800;9.534;2023-05-10T06:00:12;0.90;;;0.90;;
63320;SDS011;49449;48.800;9.534;2023-05-10T06:02:41;1.70;;;1.10;;
63320;SDS011;49449;48.800;9.534;2023-05-10T06:05:08;3.20;;;1.20;;
63320;SDS011;49449;48.800;9.534;2023-05-10T06:07:36;0.98;;;0.98;;
63320;SDS011;49449;48.800;9.534;2023-05-10T06:10:05;0.80;;;0.80;;
63320;SDS011;49449;48.800;9.534;2023-05-10T06:12:33;1.30;;;1.20;;
63320;SDS011;49449;48.800;9.534;2023-05-10T06:15:03;1.75;;;1.25;;
63320;SDS011;49449;48.800;9.534;2023-05-10T06:17:32;4.07;;;1.52;;
63320;SDS011;49449;48.800;9.534;2023-05-10T06:20:00;0.98;;;0.98;;
63320;SDS011;49449;48.800;9.534;2023-05-10T06:22:28;1.25;;;1.05;;
63320;SDS011;49449;48.800;9.534;2023-05-10T06:24:56;0.95;;;0.85;;
63320;SDS011;49449;48.800;9.534;2023-05-10T06:27:26;0.60;;;0.60;;
63320;SDS011;49449;48.800;9.534;2023-05-10T06:29:54;0.80;;;0.75;;
63320;SDS011;49449;48.800;9.534;2023-05-10T06:32:32;1.08;;;1.08;;
63320;SDS011;49449;48.800;9.534;2023-05-10T06:35:02;0.82;;;0.82;;
63320;SDS011;49449;48.800;9.534;2023-05-10T06:37:30;1.58;;;0.98;;
63320;SDS011;49449;48.800;9.534;2023-05-10T06:39:58;1.02;;;0.90;;
63320;SDS011;49449;48.800;9.534;2023-05-10T06:42:26;1.58;;;0.80;;
63320;SDS011;49449;48.800;9.534;2023-05-10T06:44:54;2.17;;;0.82;;
63320;SDS011;49449;48.800;9.534;2023-05-10T06:47:22;1.70;;;0.90;;
63320;SDS011;49449;48.800;9.534;2023-05-10T06:49:52;1.40;;;1.08;;
63320;SDS011;49449;48.800;9.534;2023-05-10T06:52:21;1.02;;;1.00;;
63320;SDS011;49449;48.800;9.534;2023-05-10T06:54:49;2.08;;;1.08;;
63320;SDS011;49449;48.800;9.534;2023-05-10T06:57:17;1.13;;;1.00;;
63320;SDS011;49449;48.800;9.534;2023-05-10T06:59:55;2.50;;;2.30;;
63320;SDS011;49449;48.800;9.534;2023-05-10T07:02:23;1.77;;;1.67;;
63320;SDS011;49449;48.800;9.534;2023-05-10T07:04:52;1.05;;;1.00;;
63320;SDS011;49449;48.800;9.534;2023-05-10T07:07:20;1.98;;;1.58;;
63320;SDS011;49449;48.800;9.534;2023-05-10T07:09:50;1.05;;;0.98;;
63320;SDS011;49449;48.800;9.534;2023-05-10T07:12:18;2.30;;;1.00;;
63320;SDS011;49449;48.800;9.534;2023-05-10T07:14:46;1.10;;;1.00;;
63320;SDS011;49449;48.800;9.534;2023-05-10T07:17:14;1.15;;;1.08;;
63320;SDS011;49449;48.800;9.534;2023-05-10T07:19:42;1.00;;;1.00;;
63320;SDS011;49449;48.800;9.534;2023-05-10T07:22:11;1.20;;;1.08;;
63320;SDS011;49449;48.800;9.534;2023-05-10T07:24:39;1.45;;;1.35;;
63320;SDS011;49449;48.800;9.534;2023-05-10T07:27:07;0.82;;;0.82;;
63320;SDS011;49449;48.800;9.534;2023-05-10T07:29:35;2.05;;;0.85;;
63320;SDS011;49449;48.800;9.534;2023-05-10T07:32:03;2.05;;;1.70;;
63320;SDS011;49449;48.800;9.534;2023-05-10T07:34:32;1.65;;;0.98;;
63320;SDS011;49449;48.800;9.534;2023-05-10T07:36:59;1.73;;;1.00;;
63320;SDS011;49449;48.800;9.534;2023-05-10T07:39:29;1.25;;;1.20;;
63320;SDS011;49449;48.800;9.534;2023-05-10T07:41:57;1.20;;;1.10;;
63320;SDS011;49449;48.800;9.534;2023-05-10T07:44:24;0.98;;;0.98;;
63320;SDS011;49449;48.800;9.534;2023-05-10T07:46:52;1.33;;;0.90;;
63320;SDS011;49449;48.800;9.534;2023-05-10T07:49:20;1.55;;;1.08;;
63320;SDS011;49449;48.800;9.534;2023-05-10T07:51:50;0.88;;;0.88;;
63320;SDS011;49449;48.800;9.534;2023-05-10T07:54:18;0.80;;;0.75;;
63320;SDS011;49449;48.800;9.534;2023-05-10T07:56:47;0.63;;;0.63;;
63320;SDS011;49449;48.800;9.534;2023-05-10T07:59:15;1.02;;;0.90;;
63320;SDS011;49449;48.800;9.534;2023-05-10T08:01:44;2.42;;;1.67;;
63320;SDS011;49449;48.800;9.534;2023-05-10T08:04:12;2.97;;;2.65;;
63320;SDS011;49449;48.800;9.534;2023-05-10T08:06:39;1.65;;;1.20;;
63320;SDS011;49449;48.800;9.534;2023-05-10T08:09:07;1.50;;;1.40;;
63320;SDS011;49449;48.800;9.534;2023-05-10T08:11:35;0.90;;;0.90;;
63320;SDS011;49449;48.800;9.534;2023-05-10T08:14:05;1.00;;;1.00;;
63320;SDS011;49449;48.800;9.534;2023-05-10T08:16:32;0.95;;;0.95;;
63320;SDS011;49449;48.800;9.534;2023-05-10T08:19:00;2.80;;;1.58;;
63320;SDS011;49449;48.800;9.534;2023-05-10T08:21:28;1.30;;;1.10;;
63320;SDS011;49449;48.800;9.534;2023-05-10T08:23:57;1.58;;;1.10;;
63320;SDS011;49449;48.800;9.534;2023-05-10T08:26:25;2.03;;;1.65;;
63320;SDS011;49449;48.800;9.534;2023-05-10T08:28:53;1.48;;;0.98;;
63320;SDS011;49449;48.800;9.534;2023-05-10T08:31:22;2.03;;;1.20;;
63320;SDS011;49449;48.800;9.534;2023-05-10T08:33:50;1.33;;;1.08;;
63320;SDS011;49449;48.800;9.534;2023-05-10T08:36:19;1.27;;;1.17;;
63320;SDS011;49449;48.800;9.534;2023-05-10T08:38:49;0.90;;;0.90;;
63320;SDS011;49449;48.800;9.534;2023-05-10T08:41:18;2.25;;;1.10;;
63320;SDS011;49449;48.800;9.534;2023-05-10T08:43:47;0.90;;;0.90;;
63320;SDS011;49449;48.800;9.534;2023-05-10T08:46:17;1.73;;;1.17;;
63320;SDS011;49449;48.800;9.534;2023-05-10T08:48:50;2.10;;;0.90;;
63320;SDS011;49449;48.800;9.534;2023-05-10T08:51:19;1.70;;;0.98;;
63320;SDS011;49449;48.800;9.534;2023-05-10T08:53:49;1.40;;;1.10;;
63320;SDS011;49449;48.800;9.534;2023-05-10T08:56:17;1.33;;;1.23;;
63320;SDS011;49449;48.800;9.534;2023-05-10T08:58:46;0.93;;;0.93;;
63320;SDS011;49449;48.800;9.534;2023-05-10T09:01:15;1.10;;;1.05;;
63320;SDS011;49449;48.800;9.534;2023-05-10T09:03:44;0.80;;;0.80;;
63320;SDS011;49449;48.800;9.534;2023-05-10T09:06:15;1.60;;;1.45;;
63320;SDS011;49449;48.800;9.534;2023-05-10T09:08:42;1.33;;;1.23;;
63320;SDS011;49449;48.800;9.534;2023-05-10T09:11:11;1.65;;;1.20;;
63320;SDS011;49449;48.800;9.534;2023-05-10T09:13:39;2.30;;;1.38;;
63320;SDS011;49449;48.800;9.534;2023-05-10T09:16:06;2.20;;;1.38;;
63320;SDS011;49449;48.800;9.534;2023-05-10T09:18:39;2.10;;;1.10;;
63320;SDS011;49449;48.800;9.534;2023-05-10T09:21:06;1.52;;;1.08;;
63320;SDS011;49449;48.800;9.534;2023-05-10T09:23:36;0.85;;;0.85;;
63320;SDS011;49449;48.800;9.534;2023-05-10T09:26:04;1.13;;;1.13;;
63320;SDS011;49449;48.800;9.534;2023-05-10T09:28:33;1.63;;;1.02;;
63320;SDS011;49449;48.800;9.534;2023-05-10T09:31:01;1.70;;;1.00;;
63320;SDS011;49449;48.800;9.534;2023-05-10T09:33:29;1.00;;;1.00;;
63320;SDS011;49449;48.800;9.534;2023-05-10T09:36:11;3.30;;;1.95;;
63320;SDS011;49449;48.800;9.534;2023-05-10T09:38:47;4.57;;;2.83;;
63320;SDS011;49449;48.800;9.534;2023-05-10T09:41:17;2.72;;;2.08;;
63320;SDS011;49449;48.800;9.534;2023-05-10T09:43:46;2.20;;;2.03;;
63320;SDS011;49449;48.800;9.534;2023-05-10T09:46:14;1.92;;;1.52;;
63320;SDS011;49449;48.800;9.534;2023-05-10T09:48:43;1.13;;;1.00;;
63320;SDS011;49449;48.800;9.534;2023-05-10T09:51:18;1.00;;;0.90;;
63320;SDS011;49449;48.800;9.534;2023-05-10T09:53:48;0.73;;;0.73;;
63320;SDS011;49449;48.800;9.534;2023-05-10T09:59:03;1.75;;;0.90;;
63320;SDS011;49449;48.800;9.534;2023-05-10T10:01:32;1.13;;;0.70;;
63320;SDS011;49449;48.800;9.534;2023-05-10T10:04:02;0.80;;;0.80;;
63320;SDS011;49449;48.800;9.534;2023-05-10T10:06:35;1.07;;;0.93;;
63320;SDS011;49449;48.800;9.534;2023-05-10T10:09:06;1.23;;;0.88;;
63320;SDS011;49449;48.800;9.534;2023-05-10T10:11:34;0.90;;;0.90;;
63320;SDS011;49449;48.800;9.534;2023-05-10T10:14:03;0.90;;;0.90;;
63320;SDS011;49449;48.800;9.534;2023-05-10T10:16:31;1.77;;;1.00;;
63320;SDS011;49449;48.800;9.534;2023-05-10T10:18:59;1.40;;;1.30;;
63320;SDS011;49449;48.800;9.534;2023-05-10T10:21:28;1.13;;;1.10;;
63320;SDS011;49449;48.800;9.534;2023-05-10T10:23:57;1.65;;;1.42;;
63320;SDS011;49449;48.800;9.534;2023-05-10T10:26:26;1.73;;;1.30;;
63320;SDS011;49449;48.800;9.534;2023-05-10T10:28:57;1.52;;;1.42;;
63320;SDS011;49449;48.800;9.534;2023-05-10T10:31:34;2.33;;;1.80;;
63320;SDS011;49449;48.800;9.534;2023-05-10T10:34:07;1.80;;;1.70;;
63320;SDS011;49449;48.800;9.534;2023-05-10T10:36:40;1.60;;;1.50;;
63320;SDS011;49449;48.800;9.534;2023-05-10T10:39:10;2.10;;;1.90;;
63320;SDS011;49449;48.800;9.534;2023-05-10T10:41:40;1.75;;;1.20;;
63320;SDS011;49449;48.800;9.534;2023-05-10T10:44:23;2.88;;;1.75;;
63320;SDS011;49449;48.800;9.534;2023-05-10T10:46:59;2.13;;;1.92;;
63320;SDS011;49449;48.800;9.534;2023-05-10T10:49:32;1.52;;;1.42;;
63320;SDS011;49449;48.800;9.534;2023-05-10T10:52:13;1.95;;;1.67;;
63320;SDS011;49449;48.800;9.534;2023-05-10T10:54:47;1.60;;;1.50;;
63320;SDS011;49449;48.800;9.534;2023-05-10T10:57:19;3.63;;;2.25;;
63320;SDS011;49449;48.800;9.534;2023-05-10T10:59:48;1.90;;;1.80;;
63320;SDS011;49449;48.800;9.534;2023-05-10T11:02:32;2.78;;;1.20;;
63320;SDS011;49449;48.800;9.534;2023-05-10T11:08:11;1.33;;;1.23;;
63320;SDS011;49449;48.800;9.534;2023-05-10T11:10:53;1.08;;;1.08;;
63320;SDS011;49449;48.800;9.534;2023-05-10T11:13:32;2.60;;;1.55;;
63320;SDS011;49449;48.800;9.534;2023-05-10T11:16:12;2.47;;;1.30;;
63320;SDS011;49449;48.800;9.534;2023-05-10T11:18:52;2.78;;;1.70;;
63320;SDS011;49449;48.800;9.534;2023-05-10T11:21:29;2.03;;;1.67;;
63320;SDS011;49449;48.800;9.534;2023-05-10T11:23:58;1.45;;;1.38;;
63320;SDS011;49449;48.800;9.534;2023-05-10T11:26:30;1.95;;;1.40;;
63320;SDS011;49449;48.800;9.534;2023-05-10T11:29:00;2.70;;;1.80;;
63320;SDS011;49449;48.800;9.534;2023-05-10T11:31:28;1.45;;;1.35;;
63320;SDS011;49449;48.800;9.534;2023-05-10T11:33:56;2.13;;;1.75;;
63320;SDS011;49449;48.800;9.534;2023-05-10T11:36:25;1.95;;;1.80;;
63320;SDS011;49449;48.800;9.534;2023-05-10T11:38:55;1.63;;;1.52;;
63320;SDS011;49449;48.800;9.534;2023-05-10T11:41:27;0.93;;;0.93;;
63320;SDS011;49449;48.800;9.534;2023-05-10T11:43:57;0.82;;;0.82;;
63320;SDS011;49449;48.800;9.534;2023-05-10T11:46:27;1.27;;;0.90;;
63320;SDS011;49449;48.800;9.534;2023-05-10T11:48:57;1.77;;;1.40;;
63320;SDS011;49449;48.800;9.534;2023-05-10T11:51:27;1.42;;;1.33;;
63320;SDS011;49449;48.800;9.534;2023-05-10T11:53:55;1.13;;;1.10;;
63320;SDS011;49449;48.800;9.534;2023-05-10T11:56:24;1.60;;;1.35;;
63320;SDS011;49449;48.800;9.534;2023-05-10T11:58:53;1.70;;;1.60;;
63320;SDS011;49449;48.800;9.534;2023-05-10T12:01:22;0.90;;;0.90;;
63320;SDS011;49449;48.800;9.534;2023-05-10T12:03:52;1.75;;;1.40;;
63320;SDS011;49449;48.800;9.534;2023-05-10T12:06:21;1.50;;;1.17;;
63320;SDS011;49449;48.800;9.534;2023-05-10T12:08:49;1.40;;;1.27;;
63320;SDS011;49449;48.800;9.534;2023-05-10T12:11:19;1.40;;;1.10;;
63320;SDS011;49449;48.800;9.534;2023-05-10T12:13:48;1.20;;;0.98;;
63320;SDS011;49449;48.800;9.534;2023-05-10T12:16:16;1.52;;;1.10;;
63320;SDS011;49449;48.800;9.534;2023-05-10T12:18:45;1.63;;;1.30;;
63320;SDS011;49449;48.800;9.534;2023-05-10T12:21:18;1.58;;;1.48;;
63320;SDS011;49449;48.800;9.534;2023-05-10T12:26:17;0.85;;;0.85;;
63320;SDS011;49449;48.800;9.534;2023-05-10T12:28:45;0.70;;;0.70;;
63320;SDS011;49449;48.800;9.534;2023-05-10T12:31:13;1.17;;;0.80;;
63320;SDS011;49449;48.800;9.534;2023-05-10T12:33:41;1.50;;;0.80;;
63320;SDS011;49449;48.800;9.534;2023-05-10T12:36:11;1.48;;;0.88;;
63320;SDS011;49449;48.800;9.534;2023-05-10T12:38:41;1.38;;;0.82;;
63320;SDS011;49449;48.800;9.534;2023-05-10T12:41:11;1.90;;;0.77;;
63320;SDS011;49449;48.800;9.534;2023-05-10T12:43:41;1.50;;;1.00;;
63320;SDS011;49449;48.800;9.534;2023-05-10T12:46:09;2.88;;;0.82;;
63320;SDS011;49449;48.800;9.534;2023-05-10T12:48:39;2.40;;;0.80;;
63320;SDS011;49449;48.800;9.534;2023-05-10T12:51:08;2.25;;;0.90;;
63320;SDS011;49449;48.800;9.534;2023-05-10T12:53:38;0.82;;;0.65;;
63320;SDS011;49449;48.800;9.534;2023-05-10T12:56:09;0.70;;;0.70;;
63320;SDS011;49449;48.800;9.534;2023-05-10T12:58:37;2.70;;;1.17;;
63320;SDS011;49449;48.800;9.534;2023-05-10T13:01:05;1.75;;;1.38;;
63320;SDS011;49449;48.800;9.534;2023-05-10T13:03:34;1.45;;;1.35;;
63320;SDS011;49449;48.800;9.534;2023-05-10T13:06:02;0.95;;;0.95;;
63320;SDS011;49449;48.800;9.534;2023-05-10T13:08:30;1.65;;;1.30;;
63320;SDS011;49449;48.800;9.534;2023-05-10T13:10:59;2.53;;;1.73;;
63320;SDS011;49449;48.800;9.534;2023-05-10T13:13:29;1.55;;;1.45;;
63320;SDS011;49449;48.800;9.534;2023-05-10T13:15:57;0.88;;;0.88;;
63320;SDS011;49449;48.800;9.534;2023-05-10T13:18:25;2.08;;;1.20;;
63320;SDS011;49449;48.800;9.534;2023-05-10T13:20:53;3.47;;;1.30;;
63320;SDS011;49449;48.800;9.534;2023-05-10T13:23:21;1.10;;;0.90;;
63320;SDS011;49449;48.800;9.534;2023-05-10T13:25:49;2.28;;;1.30;;
63320;SDS011;49449;48.800;9.534;2023-05-10T13:28:17;1.25;;;1.15;;
63320;SDS011;49449;48.800;9.534;2023-05-10T13:30:46;2.22;;;0.82;;
63320;SDS011;49449;48.800;9.534;2023-05-10T13:33:14;2.70;;;0.88;;
63320;SDS011;49449;48.800;9.534;2023-05-10T13:35:42;1.30;;;1.20;;
63320;SDS011;49449;48.800;9.534;2023-05-10T13:38:11;1.10;;;1.00;;
63320;SDS011;49449;48.800;9.534;2023-05-10T13:40:39;1.63;;;1.00;;
63320;SDS011;49449;48.800;9.534;2023-05-10T13:43:07;1.38;;;1.10;;
63320;SDS011;49449;48.800;9.534;2023-05-10T13:45:35;2.13;;;1.10;;
63320;SDS011;49449;48.800;9.534;2023-05-10T13:48:04;0.80;;;0.80;;
63320;SDS011;49449;48.800;9.534;2023-05-10T13:50:32;1.25;;;1.10;;
63320;SDS011;49449;48.800;9.534;2023-05-10T13:53:00;1.40;;;0.90;;
63320;SDS011;49449;48.800;9.534;2023-05-10T13:55:27;1.58;;;1.10;;
63320;SDS011;49449;48.800;9.534;2023-05-10T13:57:56;1.90;;;1.77;;
63320;SDS011;49449;48.800;9.534;2023-05-10T14:00:24;1.65;;;1.52;;
63320;SDS011;49449;48.800;9.534;2023-05-10T14:02:52;1.50;;;1.00;;
63320;SDS011;49449;48.800;9.534;2023-05-10T14:05:21;1.65;;;1.25;;
63320;SDS011;49449;48.800;9.534;2023-05-10T14:07:50;1.63;;;1.38;;
63320;SDS011;49449;48.800;9.534;2023-05-10T14:10:18;1.70;;;1.30;;
63320;SDS011;49449;48.800;9.534;2023-05-10T14:12:46;1.55;;;1.02;;
63320;SDS011;49449;48.800;9.534;2023-05-10T14:15:14;1.73;;;0.85;;
63320;SDS011;49449;48.800;9.534;2023-05-10T14:17:41;1.52;;;1.08;;
63320;SDS011;49449;48.800;9.534;2023-05-10T14:20:10;5.03;;;1.20;;
63320;SDS011;49449;48.800;9.534;2023-05-10T14:22:39;3.30;;;1.15;;
63320;SDS011;49449;48.800;9.534;2023-05-10T14:25:07;1.85;;;0.88;;
63320;SDS011;49449;48.800;9.534;2023-05-10T14:27:36;1.45;;;1.10;;
63320;SDS011;49449;48.800;9.534;2023-05-10T14:30:04;2.15;;;1.20;;
63320;SDS011;49449;48.800;9.534;2023-05-10T14:32:33;1.85;;;1.00;;
63320;SDS011;49449;48.800;9.534;2023-05-10T14:35:03;2.15;;;1.10;;
63320;SDS011;49449;48.800;9.534;2023-05-10T14:37:32;1.70;;;1.05;;
63320;SDS011;49449;48.800;9.534;2023-05-10T14:40:01;3.10;;;1.45;;
63320;SDS011;49449;48.800;9.534;2023-05-10T14:42:30;1.08;;;1.08;;
63320;SDS011;49449;48.800;9.534;2023-05-10T14:44:58;2.25;;;1.10;;
63320;SDS011;49449;48.800;9.534;2023-05-10T14:47:26;1.52;;;1.13;;
63320;SDS011;49449;48.800;9.534;2023-05-10T14:49:54;1.13;;;0.88;;
63320;SDS011;49449;48.800;9.534;2023-05-10T14:52:22;5.22;;;1.52;;
63320;SDS011;49449;48.800;9.534;2023-05-10T14:54:50;1.08;;;1.00;;
63320;SDS011;49449;48.800;9.534;2023-05-10T14:57:19;4.50;;;1.35;;
63320;SDS011;49449;48.800;9.534;2023-05-10T14:59:47;1.83;;;0.93;;
63320;SDS011;49449;48.800;9.534;2023-05-10T15:02:15;1.15;;;1.10;;
63320;SDS011;49449;48.800;9.534;2023-05-10T15:04:42;0.90;;;0.90;;
63320;SDS011;49449;48.800;9.534;2023-05-10T15:07:10;3.03;;;1.20;;
63320;SDS011;49449;48.800;9.534;2023-05-10T15:09:40;1.60;;;1.23;;
63320;SDS011;49449;48.800;9.534;2023-05-10T15:12:08;3.65;;;1.17;;
63320;SDS011;49449;48.800;9.534;2023-05-10T15:14:37;1.60;;;1.23;;
63320;SDS011;49449;48.800;9.534;2023-05-10T15:17:05;1.55;;;1.10;;
63320;SDS011;49449;48.800;9.534;2023-05-10T15:19:34;1.92;;;0.98;;